sensor_id;sensor_type;location;lat;lon;timestamp;pressure;altitude;pressure_sealevel;temperature;humidity
24558;BME280;12726;49.148;8.582;2023-02-10T00:02:05;102377.56;;;-4.41;96.31
24558;BME280;12726;49.148;8.582;2023-02-10T00:04:51;102369.56;;;-4.40;95.48
24558;BME280;12726;49.148;8.582;2023-02-10T00:07:37;102374.59;;;-4.33;95.67
24558;BME280;12726;49.148;8.582;2023-02-10T00:10:22;102368.59;;;-4.37;95.23
24558;BME280;12726;49.148;8.582;2023-02-10T00:13:08;102370.44;;;-4.39;95.63
24558;BME280;12726;49.148;8.582;2023-02-10T00:15:53;102364.25;;;-4.38;95.66
24558;BME280;12726;49.148;8.582;2023-02-10T00:18:39;102364.19;;;-4.37;95.70
24558;BME280;12726;49.148;8.582;2023-02-10T00:21:25;102362.25;;;-4.33;95.85
24558;BME280;12726;49.148;8.582;2023-02-10T00:24:11;102360.59;;;-4.34;95.97
24558;BME280;12726;49.148;8.582;2023-02-10T00:26:56;102368.06;;;-4.45;95.96
24558;BME280;12726;49.148;8.582;2023-02-10T00:29:42;102366.69;;;-4.54;95.90
24558;BME280;12726;49.148;8.582;2023-02-10T00:32:27;102369.66;;;-4.61;96.50
24558;BME280;12726;49.148;8.582;2023-02-10T00:35:13;102373.41;;;-4.67;97.09
24558;BME280;12726;49.148;8.582;2023-02-10T00:38:00;102371.88;;;-4.71;96.74
24558;BME280;12726;49.148;8.582;2023-02-10T00:40:45;102385.06;;;-4.72;96.68
24558;BME280;12726;49.148;8.582;2023-02-10T00:43:30;102389.53;;;-4.75;97.07
24558;BME280;12726;49.148;8.582;2023-02-10T00:46:17;102389.72;;;-4.79;96.80
24558;BME280;12726;49.148;8.582;2023-02-10T00:49:03;102390.59;;;-4.79;97.42
24558;BME280;12726;49.148;8.582;2023-02-10T00:51:48;102393.16;;;-4.77;97.02
24558;BME280;12726;49.148;8.582;2023-02-10T00:54:35;102397.41;;;-4.75;97.43
24558;BME280;12726;49.148;8.582;2023-02-10T00:57:21;102394.72;;;-4.73;97.18
24558;BME280;12726;49.148;8.582;2023-02-10T01:00:07;102392.94;;;-4.72;96.98
24558;BME280;12726;49.148;8.582;2023-02-10T01:02:52;102399.13;;;-4.74;97.19
24558;BME280;12726;49.148;8.582;2023-02-10T01:05:38;102399.97;;;-4.73;97.60
24558;BME280;12726;49.148;8.582;2023-02-10T01:08:23;102394.66;;;-4.71;97.64
24558;BME280;12726;49.148;8.582;2023-02-10T01:11:11;102402.53;;;-4.71;96.84
24558;BME280;12726;49.148;8.582;2023-02-10T01:13:57;102403.56;;;-4.76;96.67
24558;BME280;12726;49.148;8.582;2023-02-10T01:16:42;102411.72;;;-4.82;96.56
24558;BME280;12726;49.148;8.582;2023-02-10T01:19:28;102419.88;;;-4.88;97.09
24558;BME280;12726;49.148;8.582;2023-02-10T01:22:16;102423.66;;;-4.95;97.09
24558;BME280;12726;49.148;8.582;2023-02-10T01:25:01;102424.78;;;-5.00;97.40
24558;BME280;12726;49.148;8.582;2023-02-10T01:27:48;102444.13;;;-5.03;96.91
24558;BME280;12726;49.148;8.582;2023-02-10T01:30:34;102444.28;;;-5.06;97.09
24558;BME280;12726;49.148;8.582;2023-02-10T01:33:19;102439.94;;;-5.07;97.06
24558;BME280;12726;49.148;8.582;2023-02-10T01:36:09;102441.66;;;-5.06;97.29
24558;BME280;12726;49.148;8.582;2023-02-10T01:38:55;102446.00;;;-4.85;97.69
24558;BME280;12726;49.148;8.582;2023-02-10T01:41:40;102446.88;;;-4.84;97.27
24558;BME280;12726;49.148;8.582;2023-02-10T01:48:08;102426.50;;;-4.79;97.14
24558;BME280;12726;49.148;8.582;2023-02-10T01:50:57;102438.00;;;-4.82;96.79
24558;BME280;12726;49.148;8.582;2023-02-10T01:53:45;102434.78;;;-4.88;97.35
24558;BME280;12726;49.148;8.582;2023-02-10T01:56:30;102448.38;;;-4.99;97.19
24558;BME280;12726;49.148;8.582;2023-02-10T01:59:17;102439.03;;;-5.06;97.24
24558;BME280;12726;49.148;8.582;2023-02-10T02:02:04;102437.63;;;-5.15;97.58
24558;BME280;12726;49.148;8.582;2023-02-10T02:04:54;102441.16;;;-5.16;97.48
24558;BME280;12726;49.148;8.582;2023-02-10T02:07:39;102445.56;;;-5.16;98.39
24558;BME280;12726;49.148;8.582;2023-02-10T02:10:34;102437.81;;;-5.19;97.88
24558;BME280;12726;49.148;8.582;2023-02-10T02:23:34;102440.50;;;-5.21;98.53
24558;BME280;12726;49.148;8.582;2023-02-10T02:26:36;102433.34;;;-5.17;98.39
24558;BME280;12726;49.148;8.582;2023-02-10T02:33:10;102434.69;;;-5.29;97.96
24558;BME280;12726;49.148;8.582;2023-02-10T02:36:01;102442.81;;;-5.35;98.12
24558;BME280;12726;49.148;8.582;2023-02-10T02:38:49;102446.47;;;-5.39;98.10
24558;BME280;12726;49.148;8.582;2023-02-10T02:41:35;102437.81;;;-5.41;98.71
24558;BME280;12726;49.148;8.582;2023-02-10T02:44:20;102441.91;;;-5.34;98.67
24558;BME280;12726;49.148;8.582;2023-02-10T02:47:13;102438.22;;;-5.30;98.86
24558;BME280;12726;49.148;8.582;2023-02-10T02:50:12;102436.81;;;-5.17;99.23
24558;BME280;12726;49.148;8.582;2023-02-10T02:53:09;102433.44;;;-5.19;99.71
24558;BME280;12726;49.148;8.582;2023-02-10T02:56:09;102442.38;;;-5.24;100.00
24558;BME280;12726;49.148;8.582;2023-02-10T02:59:03;102450.44;;;-5.29;99.74
24558;BME280;12726;49.148;8.582;2023-02-10T03:01:53;102453.03;;;-5.27;100.00
24558;BME280;12726;49.148;8.582;2023-02-10T03:04:41;102455.56;;;-5.04;100.00
24558;BME280;12726;49.148;8.582;2023-02-10T03:07:28;102454.22;;;-4.72;100.00
24558;BME280;12726;49.148;8.582;2023-02-10T03:10:13;102458.31;;;-4.45;100.00
24558;BME280;12726;49.148;8.582;2023-02-10T03:12:59;102467.63;;;-4.17;100.00
24558;BME280;12726;49.148;8.582;2023-02-10T03:15:44;102462.81;;;-4.08;100.00
24558;BME280;12726;49.148;8.582;2023-02-10T03:18:29;102471.41;;;-4.04;100.00
24558;BME280;12726;49.148;8.582;2023-02-10T03:21:15;102467.88;;;-4.03;100.00
24558;BME280;12726;49.148;8.582;2023-02-10T03:24:02;102479.50;;;-4.09;100.00
24558;BME280;12726;49.148;8.582;2023-02-10T03:26:47;102482.09;;;-4.07;100.00
24558;BME280;12726;49.148;8.582;2023-02-10T03:29:32;102479.41;;;-4.06;100.00
24558;BME280;12726;49.148;8.582;2023-02-10T03:32:18;102485.69;;;-4.10;100.00
24558;BME280;12726;49.148;8.582;2023-02-10T03:35:04;102476.88;;;-4.09;100.00
24558;BME280;12726;49.148;8.582;2023-02-10T03:37:49;102470.50;;;-4.03;100.00
24558;BME280;12726;49.148;8.582;2023-02-10T03:40:36;102471.22;;;-4.00;100.00
24558;BME280;12726;49.148;8.582;2023-02-10T03:43:22;102469.63;;;-4.04;100.00
24558;BME280;12726;49.148;8.582;2023-02-10T03:46:09;102474.03;;;-4.04;100.00
24558;BME280;12726;49.148;8.582;2023-02-10T03:48:54;102464.53;;;-4.07;100.00
24558;BME280;12726;49.148;8.582;2023-02-10T03:51:40;102476.09;;;-4.11;100.00
24558;BME280;12726;49.148;8.582;2023-02-10T03:54:25;102479.00;;;-4.17;100.00
24558;BME280;12726;49.148;8.582;2023-02-10T03:57:13;102466.50;;;-4.12;100.00
24558;BME280;12726;49.148;8.582;2023-02-10T03:59:58;102476.81;;;-4.07;100.00
24558;BME280;12726;49.148;8.582;2023-02-10T04:02:43;102482.25;;;-4.12;100.00
24558;BME280;12726;49.148;8.582;2023-02-10T04:05:29;102480.44;;;-4.10;100.00
24558;BME280;12726;49.148;8.582;2023-02-10T04:08:14;102474.19;;;-4.07;100.00
24558;BME280;12726;49.148;8.582;2023-02-10T04:11:00;102480.84;;;-3.99;100.00
24558;BME280;12726;49.148;8.582;2023-02-10T04:13:47;102479.88;;;-3.77;100.00
24558;BME280;12726;49.148;8.582;2023-02-10T04:16:32;102477.81;;;-3.71;100.00
24558;BME280;12726;49.148;8.582;2023-02-10T04:19:17;102491.31;;;-3.60;100.00
24558;BME280;12726;49.148;8.582;2023-02-10T04:22:03;102485.97;;;-3.58;100.00
24558;BME280;12726;49.148;8.582;2023-02-10T04:24:48;102492.28;;;-3.62;100.00
24558;BME280;12726;49.148;8.582;2023-02-10T04:27:33;102496.28;;;-3.72;100.00
24558;BME280;12726;49.148;8.582;2023-02-10T04:30:20;102497.56;;;-3.81;100.00
24558;BME280;12726;49.148;8.582;2023-02-10T04:33:06;102498.06;;;-3.91;100.00
24558;BME280;12726;49.148;8.582;2023-02-10T04:35:51;102513.31;;;-4.00;100.00
24558;BME280;12726;49.148;8.582;2023-02-10T04:38:37;102511.88;;;-4.07;100.00
24558;BME280;12726;49.148;8.582;2023-02-10T04:41:22;102518.38;;;-4.15;100.00
24558;BME280;12726;49.148;8.582;2023-02-10T04:44:08;102499.34;;;-4.20;100.00
24558;BME280;12726;49.148;8.582;2023-02-10T04:46:54;102500.44;;;-4.26;100.00
24558;BME280;12726;49.148;8.582;2023-02-10T04:49:40;102517.28;;;-4.30;100.00
24558;BME280;12726;49.148;8.582;2023-02-10T04:52:25;102520.09;;;-4.35;100.00
24558;BME280;12726;49.148;8.582;2023-02-10T04:55:10;102515.50;;;-4.29;100.00
24558;BME280;12726;49.148;8.582;2023-02-10T04:57:56;102517.47;;;-4.35;100.00
24558;BME280;12726;49.148;8.582;2023-02-10T05:00:41;102520.38;;;-4.41;100.00
24558;BME280;12726;49.148;8.582;2023-02-10T05:03:28;102531.25;;;-4.50;100.00
24558;BME280;12726;49.148;8.582;2023-02-10T05:06:15;102532.59;;;-4.61;100.00
24558;BME280;12726;49.148;8.582;2023-02-10T05:09:00;102533.16;;;-4.75;100.00
24558;BME280;12726;49.148;8.582;2023-02-10T05:11:45;102529.78;;;-4.77;100.00
24558;BME280;12726;49.148;8.582;2023-02-10T05:14:31;102526.53;;;-4.84;100.00
24558;BME280;12726;49.148;8.582;2023-02-10T05:17:16;102537.34;;;-4.91;100.00
24558;BME280;12726;49.148;8.582;2023-02-10T05:20:03;102533.31;;;-5.00;100.00
24558;BME280;12726;49.148;8.582;2023-02-10T05:22:49;102544.97;;;-5.07;100.00
24558;BME280;12726;49.148;8.582;2023-02-10T05:25:34;102558.31;;;-5.11;100.00
24558;BME280;12726;49.148;8.582;2023-02-10T05:28:20;102553.06;;;-5.11;100.00
24558;BME280;12726;49.148;8.582;2023-02-10T05:31:05;102560.13;;;-5.14;100.00
24558;BME280;12726;49.148;8.582;2023-02-10T05:33:52;102555.88;;;-5.18;100.00
24558;BME280;12726;49.148;8.582;2023-02-10T05:36:39;102564.56;;;-5.16;100.00
24558;BME280;12726;49.148;8.582;2023-02-10T05:39:27;102559.06;;;-5.09;100.00
24558;BME280;12726;49.148;8.582;2023-02-10T05:42:12;102570.44;;;-5.09;100.00
24558;BME280;12726;49.148;8.582;2023-02-10T05:44:57;102573.19;;;-5.12;100.00
24558;BME280;12726;49.148;8.582;2023-02-10T05:47:43;102578.44;;;-5.12;100.00
24558;BME280;12726;49.148;8.582;2023-02-10T05:50:28;102570.09;;;-5.00;100.00
24558;BME280;12726;49.148;8.582;2023-02-10T05:53:15;102574.56;;;-4.80;100.00
24558;BME280;12726;49.148;8.582;2023-02-10T05:56:01;102578.34;;;-4.65;100.00
24558;BME280;12726;49.148;8.582;2023-02-10T05:58:46;102575.59;;;-4.62;100.00
24558;BME280;12726;49.148;8.582;2023-02-10T06:01:32;102579.19;;;-4.65;100.00
24558;BME280;12726;49.148;8.582;2023-02-10T06:04:18;102577.47;;;-4.66;100.00
24558;BME280;12726;49.148;8.582;2023-02-10T06:07:03;102575.81;;;-4.68;100.00
24558;BME280;12726;49.148;8.582;2023-02-10T06:09:50;102577.84;;;-4.75;100.00
24558;BME280;12726;49.148;8.582;2023-02-10T06:12:35;102572.13;;;-4.85;100.00
24558;BME280;12726;49.148;8.582;2023-02-10T06:15:20;102588.22;;;-4.94;100.00
24558;BME280;12726;49.148;8.582;2023-02-10T06:18:06;102590.34;;;-5.03;100.00
24558;BME280;12726;49.148;8.582;2023-02-10T06:20:51;102593.16;;;-5.08;100.00
24558;BME280;12726;49.148;8.582;2023-02-10T06:23:36;102600.19;;;-5.08;100.00
24558;BME280;12726;49.148;8.582;2023-02-10T06:26:23;102616.00;;;-5.10;100.00
24558;BME280;12726;49.148;8.582;2023-02-10T06:29:10;102616.00;;;-5.10;100.00
24558;BME280;12726;49.148;8.582;2023-02-10T06:31:55;102614.22;;;-5.09;100.00
24558;BME280;12726;49.148;8.582;2023-02-10T06:34:41;102624.78;;;-5.11;100.00
24558;BME280;12726;49.148;8.582;2023-02-10T06:37:26;102616.84;;;-5.09;100.00
24558;BME280;12726;49.148;8.582;2023-02-10T06:40:12;102612.63;;;-4.90;100.00
24558;BME280;12726;49.148;8.582;2023-02-10T06:42:58;102621.53;;;-4.72;100.00
24558;BME280;12726;49.148;8.582;2023-02-10T06:45:45;102624.44;;;-4.57;100.00
24558;BME280;12726;49.148;8.582;2023-02-10T06:48:30;102617.94;;;-4.48;100.00
24558;BME280;12726;49.148;8.582;2023-02-10T06:51:15;102624.06;;;-4.48;100.00
24558;BME280;12726;49.148;8.582;2023-02-10T06:54:01;102627.78;;;-4.53;100.00
24558;BME280;12726;49.148;8.582;2023-02-10T06:56:46;102620.75;;;-4.53;100.00
24558;BME280;12726;49.148;8.582;2023-02-10T06:59:34;102622.09;;;-4.43;100.00
24558;BME280;12726;49.148;8.582;2023-02-10T07:02:19;102621.38;;;-4.26;100.00
24558;BME280;12726;49.148;8.582;2023-02-10T07:05:06;102610.66;;;-4.20;100.00
24558;BME280;12726;49.148;8.582;2023-02-10T07:07:52;102613.72;;;-4.10;100.00
24558;BME280;12726;49.148;8.582;2023-02-10T07:10:38;102623.66;;;-3.97;100.00
24558;BME280;12726;49.148;8.582;2023-02-10T07:13:24;102614.53;;;-3.88;100.00
24558;BME280;12726;49.148;8.582;2023-02-10T07:16:10;102615.06;;;-3.80;100.00
24558;BME280;12726;49.148;8.582;2023-02-10T07:18:58;102613.75;;;-3.70;100.00
24558;BME280;12726;49.148;8.582;2023-02-10T07:21:44;102613.78;;;-3.51;100.00
24558;BME280;12726;49.148;8.582;2023-02-10T07:24:29;102611.63;;;-3.23;100.00
24558;BME280;12726;49.148;8.582;2023-02-10T07:27:14;102617.91;;;-3.06;100.00
24558;BME280;12726;49.148;8.582;2023-02-10T07:30:00;102620.53;;;-3.06;100.00
24558;BME280;12726;49.148;8.582;2023-02-10T07:32:47;102619.66;;;-2.88;100.00
24558;BME280;12726;49.148;8.582;2023-02-10T07:35:32;102620.28;;;-2.83;100.00
24558;BME280;12726;49.148;8.582;2023-02-10T07:38:17;102628.63;;;-2.73;100.00
24558;BME280;12726;49.148;8.582;2023-02-10T07:41:04;102628.97;;;-2.62;100.00
24558;BME280;12726;49.148;8.582;2023-02-10T07:43:49;102636.06;;;-2.46;100.00
24558;BME280;12726;49.148;8.582;2023-02-10T07:46:34;102631.53;;;-2.42;100.00
24558;BME280;12726;49.148;8.582;2023-02-10T07:49:21;102632.28;;;-2.40;100.00
24558;BME280;12726;49.148;8.582;2023-02-10T07:52:06;102636.78;;;-2.42;100.00
24558;BME280;12726;49.148;8.582;2023-02-10T07:54:51;102631.97;;;-2.34;100.00
24558;BME280;12726;49.148;8.582;2023-02-10T07:57:37;102632.94;;;-2.18;100.00
24558;BME280;12726;49.148;8.582;2023-02-10T08:00:24;102621.16;;;-1.93;99.44
24558;BME280;12726;49.148;8.582;2023-02-10T08:03:11;102611.63;;;-1.63;97.62
24558;BME280;12726;49.148;8.582;2023-02-10T08:05:58;102611.69;;;-1.14;95.23
24558;BME280;12726;49.148;8.582;2023-02-10T08:08:43;102610.06;;;-0.54;90.86
24558;BME280;12726;49.148;8.582;2023-02-10T08:11:29;102607.88;;;0.14;86.80
24558;BME280;12726;49.148;8.582;2023-02-10T08:14:15;102613.00;;;1.02;82.33
24558;BME280;12726;49.148;8.582;2023-02-10T08:17:01;102606.06;;;1.54;76.58
24558;BME280;12726;49.148;8.582;2023-02-10T08:19:47;102610.44;;;2.08;74.06
24558;BME280;12726;49.148;8.582;2023-02-10T08:22:34;102612.91;;;2.87;72.44
24558;BME280;12726;49.148;8.582;2023-02-10T08:25:19;102613.88;;;3.22;69.42
24558;BME280;12726;49.148;8.582;2023-02-10T08:28:04;102605.69;;;3.73;67.21
24558;BME280;12726;49.148;8.582;2023-02-10T08:30:49;102607.97;;;3.90;65.21
24558;BME280;12726;49.148;8.582;2023-02-10T08:33:36;102615.72;;;3.93;65.11
24558;BME280;12726;49.148;8.582;2023-02-10T08:36:22;102616.19;;;3.87;66.06
24558;BME280;12726;49.148;8.582;2023-02-10T08:39:09;102613.19;;;4.38;61.87
24558;BME280;12726;49.148;8.582;2023-02-10T08:41:54;102622.41;;;4.56;60.28
24558;BME280;12726;49.148;8.582;2023-02-10T08:44:39;102620.75;;;4.66;60.36
24558;BME280;12726;49.148;8.582;2023-02-10T08:47:25;102628.75;;;4.99;60.96
24558;BME280;12726;49.148;8.582;2023-02-10T08:50:11;102630.91;;;5.71;57.63
24558;BME280;12726;49.148;8.582;2023-02-10T08:52:56;102631.88;;;5.81;55.77
24558;BME280;12726;49.148;8.582;2023-02-10T08:55:43;102632.34;;;5.86;56.07
24558;BME280;12726;49.148;8.582;2023-02-10T08:58:28;102642.97;;;6.50;54.06
24558;BME280;12726;49.148;8.582;2023-02-10T09:01:15;102635.72;;;7.22;52.50
24558;BME280;12726;49.148;8.582;2023-02-10T09:04:01;102636.75;;;7.40;52.00
24558;BME280;12726;49.148;8.582;2023-02-10T09:06:46;102640.16;;;7.52;51.33
24558;BME280;12726;49.148;8.582;2023-02-10T09:09:37;102629.31;;;7.63;51.00
24558;BME280;12726;49.148;8.582;2023-02-10T09:12:24;102626.09;;;7.89;49.48
24558;BME280;12726;49.148;8.582;2023-02-10T09:15:09;102628.78;;;7.98;50.25
24558;BME280;12726;49.148;8.582;2023-02-10T09:17:55;102632.88;;;7.73;49.88
24558;BME280;12726;49.148;8.582;2023-02-10T09:20:40;102637.50;;;7.62;50.63
24558;BME280;12726;49.148;8.582;2023-02-10T09:23:26;102653.50;;;8.31;49.22
24558;BME280;12726;49.148;8.582;2023-02-10T09:26:12;102633.50;;;9.09;47.67
24558;BME280;12726;49.148;8.582;2023-02-10T09:28:58;102644.66;;;9.14;46.00
24558;BME280;12726;49.148;8.582;2023-02-10T09:31:44;102646.00;;;9.27;46.31
24558;BME280;12726;49.148;8.582;2023-02-10T09:34:29;102648.38;;;9.58;45.83
24558;BME280;12726;49.148;8.582;2023-02-10T09:37:16;102656.16;;;9.78;43.92
24558;BME280;12726;49.148;8.582;2023-02-10T09:40:00;102652.44;;;9.62;45.02
24558;BME280;12726;49.148;8.582;2023-02-10T09:42:57;102665.22;;;8.95;45.99
24558;BME280;12726;49.148;8.582;2023-02-10T09:45:48;102672.63;;;9.21;45.83
24558;BME280;12726;49.148;8.582;2023-02-10T09:48:48;102674.63;;;10.44;45.52
24558;BME280;12726;49.148;8.582;2023-02-10T09:51:43;102671.63;;;11.75;42.58
24558;BME280;12726;49.148;8.582;2023-02-10T09:54:31;102662.91;;;12.13;39.23
24558;BME280;12726;49.148;8.582;2023-02-10T09:57:19;102655.97;;;12.03;39.93
24558;BME280;12726;49.148;8.582;2023-02-10T10:00:17;102663.88;;;11.80;39.92
24558;BME280;12726;49.148;8.582;2023-02-10T10:03:14;102656.63;;;10.96;42.41
24558;BME280;12726;49.148;8.582;2023-02-10T10:06:06;102651.22;;;11.81;41.30
24558;BME280;12726;49.148;8.582;2023-02-10T10:09:01;102640.97;;;11.92;41.32
24558;BME280;12726;49.148;8.582;2023-02-10T10:11:48;102649.91;;;12.41;39.43
24558;BME280;12726;49.148;8.582;2023-02-10T10:14:36;102650.25;;;12.22;39.35
24558;BME280;12726;49.148;8.582;2023-02-10T10:17:46;102639.13;;;12.41;39.32
24558;BME280;12726;49.148;8.582;2023-02-10T10:20:45;102641.28;;;12.62;38.73
24558;BME280;12726;49.148;8.582;2023-02-10T10:23:42;102647.50;;;13.34;38.05
24558;BME280;12726;49.148;8.582;2023-02-10T10:26:42;102638.19;;;13.67;35.50
24558;BME280;12726;49.148;8.582;2023-02-10T10:29:38;102647.34;;;13.36;36.14
24558;BME280;12726;49.148;8.582;2023-02-10T10:32:35;102647.09;;;13.14;35.95
24558;BME280;12726;49.148;8.582;2023-02-10T10:35:26;102656.50;;;12.39;37.10
24558;BME280;12726;49.148;8.582;2023-02-10T10:38:19;102649.56;;;12.44;37.68
24558;BME280;12726;49.148;8.582;2023-02-10T10:41:07;102634.03;;;13.10;36.63
24558;BME280;12726;49.148;8.582;2023-02-10T10:43:56;102641.97;;;13.27;36.20
24558;BME280;12726;49.148;8.582;2023-02-10T10:46:45;102639.25;;;13.58;35.00
24558;BME280;12726;49.148;8.582;2023-02-10T10:49:31;102631.72;;;14.37;34.13
24558;BME280;12726;49.148;8.582;2023-02-10T10:52:26;102630.63;;;14.08;33.52
24558;BME280;12726;49.148;8.582;2023-02-10T10:55:16;102623.47;;;13.39;35.13
24558;BME280;12726;49.148;8.582;2023-02-10T10:58:07;102632.91;;;13.97;33.67
24558;BME280;12726;49.148;8.582;2023-02-10T11:00:58;102632.03;;;14.04;33.52
24558;BME280;12726;49.148;8.582;2023-02-10T11:03:45;102628.94;;;14.07;33.26
24558;BME280;12726;49.148;8.582;2023-02-10T11:06:33;102627.84;;;14.39;32.88
24558;BME280;12726;49.148;8.582;2023-02-10T11:09:26;102630.56;;;14.17;32.35
24558;BME280;12726;49.148;8.582;2023-02-10T11:12:20;102633.31;;;14.54;31.84
24558;BME280;12726;49.148;8.582;2023-02-10T11:15:22;102624.56;;;14.81;32.21
24558;BME280;12726;49.148;8.582;2023-02-10T11:18:16;102628.00;;;15.05;31.50
24558;BME280;12726;49.148;8.582;2023-02-10T11:21:05;102614.97;;;15.29;31.09
24558;BME280;12726;49.148;8.582;2023-02-10T11:23:52;102617.06;;;14.83;32.08
24558;BME280;12726;49.148;8.582;2023-02-10T11:26:39;102618.88;;;15.42;30.52
24558;BME280;12726;49.148;8.582;2023-02-10T11:29:26;102613.00;;;15.74;29.57
24558;BME280;12726;49.148;8.582;2023-02-10T11:32:17;102624.91;;;14.93;30.13
24558;BME280;12726;49.148;8.582;2023-02-10T11:35:06;102617.00;;;15.42;30.76
24558;BME280;12726;49.148;8.582;2023-02-10T11:38:03;102618.50;;;16.51;28.13
24558;BME280;12726;49.148;8.582;2023-02-10T11:40:50;102618.56;;;16.30;29.74
24558;BME280;12726;49.148;8.582;2023-02-10T11:43:40;102611.38;;;16.50;28.29
24558;BME280;12726;49.148;8.582;2023-02-10T11:46:29;102608.28;;;17.22;27.31
24558;BME280;12726;49.148;8.582;2023-02-10T11:49:17;102600.22;;;17.48;26.62
24558;BME280;12726;49.148;8.582;2023-02-10T11:52:04;102609.25;;;17.55;26.46
24558;BME280;12726;49.148;8.582;2023-02-10T11:54:50;102598.09;;;17.37;26.93
24558;BME280;12726;49.148;8.582;2023-02-10T11:57:44;102606.31;;;17.57;25.65
24558;BME280;12726;49.148;8.582;2023-02-10T12:00:53;102601.56;;;17.11;26.43
24558;BME280;12726;49.148;8.582;2023-02-10T12:03:56;102585.09;;;17.33;26.13
24558;BME280;12726;49.148;8.582;2023-02-10T12:06:51;102588.84;;;17.25;25.87
24558;BME280;12726;49.148;8.582;2023-02-10T12:09:45;102587.91;;;17.05;27.39
24558;BME280;12726;49.148;8.582;2023-02-10T12:12:39;102575.19;;;17.99;25.71
24558;BME280;12726;49.148;8.582;2023-02-10T12:15:35;102574.13;;;18.20;25.42
24558;BME280;12726;49.148;8.582;2023-02-10T12:18:36;102572.06;;;18.15;25.79
24558;BME280;12726;49.148;8.582;2023-02-10T12:21:55;102568.06;;;18.37;24.83
24558;BME280;12726;49.148;8.582;2023-02-10T12:25:02;102561.28;;;18.80;24.44
24558;BME280;12726;49.148;8.582;2023-02-10T12:27:54;102572.06;;;17.82;26.01
24558;BME280;12726;49.148;8.582;2023-02-10T12:30:47;102572.47;;;18.12;24.87
24558;BME280;12726;49.148;8.582;2023-02-10T12:33:44;102575.00;;;17.94;25.52
24558;BME280;12726;49.148;8.582;2023-02-10T12:36:37;102572.41;;;18.78;24.51
24558;BME280;12726;49.148;8.582;2023-02-10T12:39:35;102570.66;;;17.32;25.11
24558;BME280;12726;49.148;8.582;2023-02-10T12:42:37;102560.78;;;17.25;26.03
24558;BME280;12726;49.148;8.582;2023-02-10T12:45:33;102557.91;;;16.92;26.20
24558;BME280;12726;49.148;8.582;2023-02-10T12:48:29;102559.66;;;16.37;26.95
24558;BME280;12726;49.148;8.582;2023-02-10T12:51:28;102562.28;;;14.73;29.52
24558;BME280;12726;49.148;8.582;2023-02-10T12:54:20;102552.25;;;14.07;29.35
24558;BME280;12726;49.148;8.582;2023-02-10T12:57:11;102547.84;;;13.68;30.87
24558;BME280;12726;49.148;8.582;2023-02-10T13:00:02;102539.28;;;12.95;32.68
24558;BME280;12726;49.148;8.582;2023-02-10T13:02:53;102532.19;;;12.63;32.53
24558;BME280;12726;49.148;8.582;2023-02-10T13:05:44;102536.31;;;11.70;35.27
24558;BME280;12726;49.148;8.582;2023-02-10T13:08:35;102542.50;;;11.30;35.11
24558;BME280;12726;49.148;8.582;2023-02-10T13:11:29;102536.56;;;10.16;37.81
24558;BME280;12726;49.148;8.582;2023-02-10T13:14:22;102542.56;;;9.85;39.46
24558;BME280;12726;49.148;8.582;2023-02-10T13:17:09;102534.88;;;9.54;39.44
24558;BME280;12726;49.148;8.582;2023-02-10T13:20:00;102536.72;;;9.36;40.12
24558;BME280;12726;49.148;8.582;2023-02-10T13:22:53;102542.00;;;9.46;39.77
24558;BME280;12726;49.148;8.582;2023-02-10T13:25:59;102544.63;;;9.91;38.53
24558;BME280;12726;49.148;8.582;2023-02-10T13:28:58;102525.22;;;9.43;39.57
24558;BME280;12726;49.148;8.582;2023-02-10T13:31:58;102533.56;;;9.40;40.74
24558;BME280;12726;49.148;8.582;2023-02-10T13:34:49;102528.09;;;9.15;40.94
24558;BME280;12726;49.148;8.582;2023-02-10T13:37:39;102537.19;;;8.86;42.06
24558;BME280;12726;49.148;8.582;2023-02-10T13:40:27;102528.28;;;8.86;41.61
24558;BME280;12726;49.148;8.582;2023-02-10T13:43:24;102532.91;;;8.93;41.16
24558;BME280;12726;49.148;8.582;2023-02-10T13:46:19;102531.59;;;8.70;41.57
24558;BME280;12726;49.148;8.582;2023-02-10T13:49:16;102537.22;;;8.77;41.73
24558;BME280;12726;49.148;8.582;2023-02-10T13:52:10;102532.97;;;8.74;41.85
24558;BME280;12726;49.148;8.582;2023-02-10T13:54:58;102529.72;;;8.80;41.47
24558;BME280;12726;49.148;8.582;2023-02-10T13:57:52;102524.00;;;8.93;42.31
24558;BME280;12726;49.148;8.582;2023-02-10T14:00:41;102531.50;;;8.89;41.81
24558;BME280;12726;49.148;8.582;2023-02-10T14:03:29;102542.47;;;8.32;42.01
24558;BME280;12726;49.148;8.582;2023-02-10T14:06:16;102533.53;;;8.41;43.23
24558;BME280;12726;49.148;8.582;2023-02-10T14:09:03;102541.06;;;8.37;43.88
24558;BME280;12726;49.148;8.582;2023-02-10T14:11:51;102539.38;;;8.36;43.41
24558;BME280;12726;49.148;8.582;2023-02-10T14:14:37;102538.03;;;8.50;43.87
24558;BME280;12726;49.148;8.582;2023-02-10T14:17:25;102529.59;;;8.45;42.88
24558;BME280;12726;49.148;8.582;2023-02-10T14:20:16;102534.56;;;8.30;42.86
24558;BME280;12726;49.148;8.582;2023-02-10T14:23:05;102531.75;;;8.12;43.61
24558;BME280;12726;49.148;8.582;2023-02-10T14:25:55;102529.38;;;8.09;43.33
24558;BME280;12726;49.148;8.582;2023-02-10T14:28:47;102526.31;;;7.95;45.05
24558;BME280;12726;49.148;8.582;2023-02-10T14:31:35;102529.53;;;8.08;43.78
24558;BME280;12726;49.148;8.582;2023-02-10T14:34:25;102520.75;;;7.96;43.90
24558;BME280;12726;49.148;8.582;2023-02-10T14:37:16;102516.16;;;7.89;44.99
24558;BME280;12726;49.148;8.582;2023-02-10T14:40:04;102515.16;;;7.80;45.06
24558;BME280;12726;49.148;8.582;2023-02-10T14:42:49;102519.81;;;7.78;45.36
24558;BME280;12726;49.148;8.582;2023-02-10T14:45:34;102523.47;;;7.86;46.54
24558;BME280;12726;49.148;8.582;2023-02-10T14:48:23;102514.16;;;8.00;45.36
24558;BME280;12726;49.148;8.582;2023-02-10T14:51:18;102518.84;;;7.79;45.18
24558;BME280;12726;49.148;8.582;2023-02-10T14:54:09;102520.38;;;7.62;45.80
24558;BME280;12726;49.148;8.582;2023-02-10T14:56:57;102524.34;;;7.48;46.15